createdAt,value
2019-04-22T08:14:24.170Z,13.87
2019-04-22T08:24:35.590Z,12.27
2019-04-22T08:29:46.928Z,12.83
2019-04-22T08:34:42.178Z,12.37
2019-04-22T08:40:15.460Z,12.07
2019-04-22T08:56:35.181Z,13.57
2019-04-22T09:01:35.488Z,14.83
2019-04-22T09:07:01.962Z,13.93
2019-04-22T09:11:57.737Z,15.13
2019-04-22T09:16:56.389Z,13.57
2019-04-22T09:22:08.244Z,18.47
2019-04-22T09:27:23.373Z,9.53
2019-04-22T09:32:20.245Z,8.37
2019-04-22T09:37:34.115Z,10.10
2019-04-22T09:42:31.829Z,13.87
2019-04-22T09:52:51.453Z,18.67
2019-04-22T09:57:55.685Z,8.93
2019-04-22T10:08:16.591Z,9.60
2019-04-22T10:13:23.682Z,10.80
2019-04-22T10:18:25.951Z,16.73
2019-04-22T10:23:31.811Z,12.53
2019-04-22T10:28:44.520Z,12.27
2019-04-22T10:33:36.303Z,11.60
2019-04-22T10:38:28.257Z,11.87
2019-04-22T10:43:34.967Z,10.13
2019-04-22T10:48:42.101Z,11.87
2019-04-22T10:53:47.477Z,11.13
2019-04-22T10:58:53.179Z,11.83
2019-04-22T11:03:59.610Z,9.83
2019-04-22T11:09:08.694Z,9.03
2019-04-22T11:14:14.904Z,13.55
2019-04-22T11:19:21.401Z,9.25
2019-04-22T11:24:26.841Z,9.87
2019-04-22T11:29:32.194Z,11.97
2019-04-22T11:34:37.780Z,11.00
2019-04-22T11:39:44.777Z,13.27
2019-04-22T11:44:50.979Z,14.50
2019-04-22T11:49:57.680Z,9.70
2019-04-22T11:55:10.884Z,9.80
2019-04-22T12:00:20.959Z,9.40
2019-04-22T12:05:28.053Z,8.80
2019-04-22T12:10:42.450Z,8.40
2019-04-22T12:15:40.954Z,9.40
2019-04-22T12:20:47.426Z,10.97
2019-04-22T12:26:00.913Z,10.60
2019-04-22T12:31:01.655Z,10.10
2019-04-22T12:36:08.932Z,10.40
2019-04-22T12:41:15.920Z,11.43
2019-04-22T12:46:21.312Z,10.03
2019-04-22T12:51:27.251Z,10.43
2019-04-22T12:56:33.425Z,11.70
2019-04-22T13:01:39.166Z,12.60
2019-04-22T13:06:46.048Z,12.63
2019-04-22T13:11:52.964Z,11.80
2019-04-22T13:16:59.697Z,8.63
2019-04-22T13:22:07.054Z,7.70
2019-04-22T13:27:12.961Z,8.13
2019-04-22T13:32:18.709Z,7.50
2019-04-22T13:37:25.296Z,7.83
2019-04-22T13:42:31.514Z,7.13
2019-04-22T13:47:56.223Z,6.90
2019-04-22T13:58:02.569Z,8.67
2019-04-22T14:03:16.431Z,8.80
2019-04-22T14:08:23.000Z,6.83
2019-04-22T14:13:30.057Z,8.63
2019-04-22T14:18:37.050Z,11.57
2019-04-22T14:23:42.570Z,7.67
2019-04-22T14:28:48.088Z,7.07
2019-04-22T14:33:57.373Z,9.13
2019-04-22T14:39:02.036Z,6.80
2019-04-22T14:49:44.847Z,7.17
2019-04-22T14:54:37.745Z,5.70
2019-04-22T14:59:32.611Z,9.03
2019-04-22T15:04:39.277Z,5.73
2019-04-22T15:09:46.022Z,12.57
2019-04-22T15:14:53.113Z,11.43
2019-04-22T15:20:16.328Z,5.47
2019-04-22T15:25:22.864Z,8.23
2019-04-22T15:30:29.654Z,5.73
2019-04-22T15:35:37.360Z,6.63
2019-04-22T15:40:43.099Z,8.57
2019-04-22T15:45:48.730Z,8.60
2019-04-22T15:50:54.982Z,7.20
2019-04-22T15:56:03.083Z,7.13
2019-04-22T16:01:16.226Z,8.03
2019-04-22T16:06:15.791Z,10.23
2019-04-22T16:11:22.270Z,11.35
2019-04-22T16:16:28.404Z,11.10
2019-04-22T16:21:45.180Z,11.50
2019-04-22T16:26:44.398Z,9.13
2019-04-22T16:31:51.363Z,8.10
2019-04-22T16:36:57.120Z,12.80
2019-04-22T16:42:02.708Z,11.67
2019-04-22T16:47:09.933Z,18.97
2019-04-22T16:52:16.270Z,9.70
2019-04-22T16:57:21.974Z,12.90
2019-04-22T17:02:43.219Z,10.23
2019-04-22T17:07:48.315Z,23.10
2019-04-22T17:13:01.497Z,8.23
2019-04-22T17:18:01.287Z,4.43
2019-04-22T17:23:07.461Z,6.10
2019-04-22T17:28:13.307Z,4.40
2019-04-22T17:33:19.111Z,4.60
2019-04-22T17:38:36.183Z,4.03
2019-04-22T17:49:10.941Z,13.50
2019-04-22T17:54:21.405Z,12.65
2019-04-22T17:59:29.499Z,13.60
2019-04-22T18:04:13.923Z,19.13
2019-04-22T18:10:10.747Z,20.30
2019-04-22T18:14:54.804Z,13.40
2019-04-22T18:19:52.034Z,18.23
2019-04-22T18:24:58.335Z,14.43
2019-04-22T18:30:04.007Z,13.90
2019-04-22T18:35:14.279Z,7.63
2019-04-22T18:40:25.993Z,10.40
2019-04-22T18:45:40.475Z,9.80
2019-04-22T18:51:07.753Z,11.22
2019-04-22T18:56:13.926Z,17.43
2019-04-22T19:00:57.768Z,13.07
2019-04-22T19:06:36.842Z,9.07
2019-04-22T19:11:34.171Z,10.95
2019-04-22T19:16:39.863Z,11.00
2019-04-22T19:21:47.697Z,10.53
2019-04-22T19:32:05.174Z,41.70
2019-04-22T19:37:10.903Z,39.20
2019-04-22T19:42:27.051Z,56.53
2019-04-22T19:52:35.793Z,30.83
2019-04-22T19:57:33.977Z,36.50
2019-04-22T20:02:51.420Z,16.33
2019-04-22T20:07:49.679Z,13.40
2019-04-22T20:13:07.623Z,15.00
2019-04-22T20:18:27.013Z,13.20
2019-04-22T20:23:15.910Z,19.17
2019-04-22T20:28:31.818Z,12.13
2019-04-22T20:33:36.979Z,11.83
2019-04-22T20:38:39.900Z,14.15
2019-04-22T20:43:54.641Z,13.10
2019-04-22T20:49:05.093Z,55.53
2019-04-22T20:54:09.001Z,132.40
2019-04-22T20:59:08.685Z,70.37
2019-04-22T21:04:01.532Z,28.53
2019-04-22T21:09:25.411Z,17.13
2019-04-22T21:14:32.285Z,38.73
2019-04-22T21:19:53.205Z,17.23
2019-04-22T21:24:49.226Z,26.93
2019-04-22T21:29:49.645Z,16.53
2019-04-22T21:35:05.779Z,16.37
2019-04-22T21:40:16.419Z,15.33
2019-04-22T21:45:16.668Z,16.20
2019-04-22T21:50:41.561Z,18.43
2019-04-22T21:55:45.038Z,17.45
2019-04-22T22:01:02.471Z,45.37
2019-04-22T22:05:49.134Z,27.90
2019-04-22T22:11:02.635Z,43.80
2019-04-22T22:16:06.673Z,76.40
2019-04-22T22:21:38.100Z,36.83
2019-04-22T22:26:18.625Z,37.90
2019-04-22T22:31:34.633Z,86.23
2019-04-22T22:36:35.148Z,76.40
2019-04-22T22:41:29.872Z,47.33
2019-04-22T22:46:52.060Z,76.10
2019-04-22T22:52:32.966Z,21.60
2019-04-22T22:57:17.463Z,20.53
2019-04-22T23:02:20.417Z,16.67
2019-04-22T23:07:28.861Z,17.43
2019-04-22T23:12:40.869Z,17.97
2019-04-22T23:17:25.698Z,16.27
2019-04-22T23:22:36.092Z,18.97
2019-04-22T23:28:01.526Z,21.23
2019-04-22T23:33:09.870Z,17.67
2019-04-22T23:38:23.154Z,20.73
2019-04-22T23:43:32.657Z,40.17
2019-04-22T23:48:29.445Z,27.77
2019-04-22T23:58:57.886Z,52.17
